sensor_id;sensor_type;location;lat;lon;timestamp;pressure;altitude;pressure_sealevel;temperature
75431;BMP280;64127;51.488;5.462;2023-05-29T00:01:08;102039.53;;;19.24
75431;BMP280;64127;51.488;5.462;2023-05-29T00:03:40;102039.47;;;19.21
75431;BMP280;64127;51.488;5.462;2023-05-29T00:06:13;102038.38;;;19.13
75431;BMP280;64127;51.488;5.462;2023-05-29T00:08:45;102041.88;;;19.12
75431;BMP280;64127;51.488;5.462;2023-05-29T00:11:17;102049.84;;;19.12
75431;BMP280;64127;51.488;5.462;2023-05-29T00:13:49;102046.25;;;19.10
75431;BMP280;64127;51.488;5.462;2023-05-29T00:16:22;102036.25;;;19.00
75431;BMP280;64127;51.488;5.462;2023-05-29T00:18:55;102047.88;;;19.05
75431;BMP280;64127;51.488;5.462;2023-05-29T00:21:27;102046.81;;;18.98
75431;BMP280;64127;51.488;5.462;2023-05-29T00:23:59;102048.50;;;18.95
75431;BMP280;64127;51.488;5.462;2023-05-29T00:26:31;102050.06;;;18.87
75431;BMP280;64127;51.488;5.462;2023-05-29T00:29:03;102052.53;;;18.81
75431;BMP280;64127;51.488;5.462;2023-05-29T00:31:35;102057.78;;;18.78
75431;BMP280;64127;51.488;5.462;2023-05-29T00:34:08;102059.50;;;18.76
75431;BMP280;64127;51.488;5.462;2023-05-29T00:36:42;102053.19;;;18.72
75431;BMP280;64127;51.488;5.462;2023-05-29T00:39:15;102061.19;;;18.73
75431;BMP280;64127;51.488;5.462;2023-05-29T00:41:47;102057.53;;;18.68
75431;BMP280;64127;51.488;5.462;2023-05-29T00:44:22;102062.69;;;18.62
75431;BMP280;64127;51.488;5.462;2023-05-29T00:46:55;102064.19;;;18.54
75431;BMP280;64127;51.488;5.462;2023-05-29T00:49:28;102065.78;;;18.49
75431;BMP280;64127;51.488;5.462;2023-05-29T00:52:00;102069.22;;;18.45
75431;BMP280;64127;51.488;5.462;2023-05-29T00:54:34;102058.53;;;18.42
75431;BMP280;64127;51.488;5.462;2023-05-29T00:57:06;102057.41;;;18.36
75431;BMP280;64127;51.488;5.462;2023-05-29T00:59:40;102067.25;;;18.38
75431;BMP280;64127;51.488;5.462;2023-05-29T01:02:15;102042.69;;;18.17
75431;BMP280;64127;51.488;5.462;2023-05-29T01:04:48;102077.56;;;18.29
75431;BMP280;64127;51.488;5.462;2023-05-29T01:07:21;102082.53;;;18.17
75431;BMP280;64127;51.488;5.462;2023-05-29T01:09:53;102081.53;;;18.13
75431;BMP280;64127;51.488;5.462;2023-05-29T01:12:46;102085.84;;;18.10
75431;BMP280;64127;51.488;5.462;2023-05-29T01:15:39;102091.16;;;18.10
75431;BMP280;64127;51.488;5.462;2023-05-29T01:21:11;102094.47;;;18.03
75431;BMP280;64127;51.488;5.462;2023-05-29T01:24:08;102096.84;;;17.94
75431;BMP280;64127;51.488;5.462;2023-05-29T01:27:05;102063.38;;;17.70
75431;BMP280;64127;51.488;5.462;2023-05-29T01:29:39;102092.09;;;17.84
75431;BMP280;64127;51.488;5.462;2023-05-29T01:32:14;102092.09;;;17.84
75431;BMP280;64127;51.488;5.462;2023-05-29T01:34:46;102101.81;;;17.83
75431;BMP280;64127;51.488;5.462;2023-05-29T01:37:18;102099.09;;;17.82
75431;BMP280;64127;51.488;5.462;2023-05-29T01:39:50;102104.19;;;17.76
75431;BMP280;64127;51.488;5.462;2023-05-29T01:42:23;102104.91;;;17.70
75431;BMP280;64127;51.488;5.462;2023-05-29T01:44:57;102100.28;;;17.64
75431;BMP280;64127;51.488;5.462;2023-05-29T01:47:30;102099.34;;;17.62
75431;BMP280;64127;51.488;5.462;2023-05-29T01:50:04;102095.78;;;17.62
75431;BMP280;64127;51.488;5.462;2023-05-29T01:52:36;102095.59;;;17.56
75431;BMP280;64127;51.488;5.462;2023-05-29T01:55:08;102098.16;;;17.54
75431;BMP280;64127;51.488;5.462;2023-05-29T01:57:41;102099.97;;;17.55
75431;BMP280;64127;51.488;5.462;2023-05-29T02:00:16;102096.38;;;17.53
75431;BMP280;64127;51.488;5.462;2023-05-29T02:02:48;102096.13;;;17.47
75431;BMP280;64127;51.488;5.462;2023-05-29T02:05:20;102088.09;;;17.44
75431;BMP280;64127;51.488;5.462;2023-05-29T02:07:53;102091.38;;;17.37
75431;BMP280;64127;51.488;5.462;2023-05-29T02:10:25;102096.53;;;17.33
75431;BMP280;64127;51.488;5.462;2023-05-29T02:12:57;102094.56;;;17.27
75431;BMP280;64127;51.488;5.462;2023-05-29T02:15:29;102090.22;;;17.29
75431;BMP280;64127;51.488;5.462;2023-05-29T02:18:01;102096.47;;;17.31
75431;BMP280;64127;51.488;5.462;2023-05-29T02:20:34;102094.44;;;17.22
75431;BMP280;64127;51.488;5.462;2023-05-29T02:23:08;102099.66;;;17.21
75431;BMP280;64127;51.488;5.462;2023-05-29T02:25:41;102097.63;;;17.14
75431;BMP280;64127;51.488;5.462;2023-05-29T02:28:13;102099.09;;;17.06
75431;BMP280;64127;51.488;5.462;2023-05-29T02:30:45;102102.72;;;17.08
75431;BMP280;64127;51.488;5.462;2023-05-29T02:33:17;102101.09;;;17.11
75431;BMP280;64127;51.488;5.462;2023-05-29T02:35:49;102096.44;;;17.06
75431;BMP280;64127;51.488;5.462;2023-05-29T02:38:21;102108.06;;;17.09
75431;BMP280;64127;51.488;5.462;2023-05-29T02:40:53;102110.69;;;17.08
75431;BMP280;64127;51.488;5.462;2023-05-29T02:43:26;102105.09;;;17.00
75431;BMP280;64127;51.488;5.462;2023-05-29T02:45:58;102110.13;;;16.93
75431;BMP280;64127;51.488;5.462;2023-05-29T02:48:30;102112.66;;;16.90
75431;BMP280;64127;51.488;5.462;2023-05-29T02:51:03;102129.53;;;16.92
75431;BMP280;64127;51.488;5.462;2023-05-29T02:53:35;102112.66;;;16.90
75431;BMP280;64127;51.488;5.462;2023-05-29T02:56:08;102124.09;;;16.89
75431;BMP280;64127;51.488;5.462;2023-05-29T02:58:41;102124.00;;;16.86
75431;BMP280;64127;51.488;5.462;2023-05-29T03:01:13;102128.34;;;16.84
75431;BMP280;64127;51.488;5.462;2023-05-29T03:03:45;102117.63;;;16.81
75431;BMP280;64127;51.488;5.462;2023-05-29T03:06:17;102123.56;;;16.73
75431;BMP280;64127;51.488;5.462;2023-05-29T03:08:49;102133.75;;;16.63
75431;BMP280;64127;51.488;5.462;2023-05-29T03:11:22;102117.41;;;16.52
75431;BMP280;64127;51.488;5.462;2023-05-29T03:13:56;102123.50;;;16.50
75431;BMP280;64127;51.488;5.462;2023-05-29T03:16:28;102126.06;;;16.48
75431;BMP280;64127;51.488;5.462;2023-05-29T03:19:01;102125.13;;;16.46
75431;BMP280;64127;51.488;5.462;2023-05-29T03:21:34;102112.28;;;16.33
75431;BMP280;64127;51.488;5.462;2023-05-29T03:24:07;102127.53;;;16.40
75431;BMP280;64127;51.488;5.462;2023-05-29T03:26:39;102128.47;;;16.64
75431;BMP280;64127;51.488;5.462;2023-05-29T03:29:12;102131.75;;;16.35
75431;BMP280;64127;51.488;5.462;2023-05-29T03:31:44;102135.06;;;16.30
75431;BMP280;64127;51.488;5.462;2023-05-29T03:34:16;102129.69;;;16.28
75431;BMP280;64127;51.488;5.462;2023-05-29T03:36:48;102127.06;;;16.28
75431;BMP280;64127;51.488;5.462;2023-05-29T03:39:21;102128.97;;;16.32
75431;BMP280;64127;51.488;5.462;2023-05-29T03:41:52;102132.41;;;16.30
75431;BMP280;64127;51.488;5.462;2023-05-29T03:44:25;102144.63;;;16.26
75431;BMP280;64127;51.488;5.462;2023-05-29T03:46:57;102141.22;;;16.30
75431;BMP280;64127;51.488;5.462;2023-05-29T03:49:29;102140.25;;;16.27
75431;BMP280;64127;51.488;5.462;2023-05-29T03:52:01;102123.63;;;16.08
75431;BMP280;64127;51.488;5.462;2023-05-29T03:54:33;102135.13;;;16.09
75431;BMP280;64127;51.488;5.462;2023-05-29T03:57:05;102142.34;;;16.13
75431;BMP280;64127;51.488;5.462;2023-05-29T03:59:38;102154.59;;;16.11
75431;BMP280;64127;51.488;5.462;2023-05-29T04:02:12;102142.34;;;16.13
75431;BMP280;64127;51.488;5.462;2023-05-29T04:04:45;102148.47;;;16.12
75431;BMP280;64127;51.488;5.462;2023-05-29T04:07:17;102155.69;;;16.16
75431;BMP280;64127;51.488;5.462;2023-05-29T04:09:50;102155.56;;;16.13
75431;BMP280;64127;51.488;5.462;2023-05-29T04:12:22;102157.31;;;16.12
75431;BMP280;64127;51.488;5.462;2023-05-29T04:14:54;102155.31;;;16.07
75431;BMP280;64127;51.488;5.462;2023-05-29T04:17:26;102160.44;;;16.02
75431;BMP280;64127;51.488;5.462;2023-05-29T04:19:58;102161.97;;;15.97
75431;BMP280;64127;51.488;5.462;2023-05-29T04:22:31;102134.91;;;15.82
75431;BMP280;64127;51.488;5.462;2023-05-29T04:25:04;102168.22;;;15.99
75431;BMP280;64127;51.488;5.462;2023-05-29T04:27:36;102173.66;;;16.02
75431;BMP280;64127;51.488;5.462;2023-05-29T04:30:09;102172.53;;;15.97
75431;BMP280;64127;51.488;5.462;2023-05-29T04:32:42;102156.22;;;15.87
75431;BMP280;64127;51.488;5.462;2023-05-29T04:35:14;102160.94;;;15.94
75431;BMP280;64127;51.488;5.462;2023-05-29T04:37:46;102169.13;;;16.00
75431;BMP280;64127;51.488;5.462;2023-05-29T04:40:19;102168.28;;;16.01
75431;BMP280;64127;51.488;5.462;2023-05-29T04:42:52;102182.47;;;16.03
75431;BMP280;64127;51.488;5.462;2023-05-29T04:45:24;102175.41;;;16.02
75431;BMP280;64127;51.488;5.462;2023-05-29T04:47:57;102183.34;;;16.02
75431;BMP280;64127;51.488;5.462;2023-05-29T04:50:29;102185.97;;;16.02
75431;BMP280;64127;51.488;5.462;2023-05-29T04:53:02;102182.22;;;15.97
75431;BMP280;64127;51.488;5.462;2023-05-29T04:55:34;102184.94;;;15.98
75431;BMP280;64127;51.488;5.462;2023-05-29T04:58:06;102179.56;;;15.97
75431;BMP280;64127;51.488;5.462;2023-05-29T05:00:38;102166.03;;;15.89
75431;BMP280;64127;51.488;5.462;2023-05-29T05:03:10;102172.81;;;15.83
75431;BMP280;64127;51.488;5.462;2023-05-29T05:05:43;102167.34;;;15.78
75431;BMP280;64127;51.488;5.462;2023-05-29T05:08:15;102184.25;;;15.82
75431;BMP280;64127;51.488;5.462;2023-05-29T05:10:47;102153.47;;;15.63
75431;BMP280;64127;51.488;5.462;2023-05-29T05:13:19;102186.16;;;15.86
75431;BMP280;64127;51.488;5.462;2023-05-29T05:15:52;102193.47;;;15.91
75431;BMP280;64127;51.488;5.462;2023-05-29T05:18:24;102191.66;;;15.90
75431;BMP280;64127;51.488;5.462;2023-05-29T05:20:56;102178.88;;;15.80
75431;BMP280;64127;51.488;5.462;2023-05-29T05:23:28;102195.00;;;15.86
75431;BMP280;64127;51.488;5.462;2023-05-29T05:26:00;102197.72;;;15.88
75431;BMP280;64127;51.488;5.462;2023-05-29T05:28:32;102205.13;;;15.96
75431;BMP280;64127;51.488;5.462;2023-05-29T05:31:05;102188.22;;;15.93
75431;BMP280;64127;51.488;5.462;2023-05-29T05:33:37;102204.81;;;16.09
75431;BMP280;64127;51.488;5.462;2023-05-29T05:36:10;102203.31;;;16.16
75431;BMP280;64127;51.488;5.462;2023-05-29T05:38:42;102216.56;;;16.16
75431;BMP280;64127;51.488;5.462;2023-05-29T05:41:14;102208.63;;;16.16
75431;BMP280;64127;51.488;5.462;2023-05-29T05:43:46;102219.66;;;16.27
75431;BMP280;64127;51.488;5.462;2023-05-29T05:46:18;102217.56;;;16.40
75431;BMP280;64127;51.488;5.462;2023-05-29T05:48:50;102209.06;;;16.49
75431;BMP280;64127;51.488;5.462;2023-05-29T05:51:24;102213.69;;;16.54
75431;BMP280;64127;51.488;5.462;2023-05-29T05:53:56;102196.91;;;16.54
75431;BMP280;64127;51.488;5.462;2023-05-29T05:56:28;102207.69;;;16.58
75431;BMP280;64127;51.488;5.462;2023-05-29T05:59:00;102209.75;;;16.65
75431;BMP280;64127;51.488;5.462;2023-05-29T06:01:32;102190.38;;;16.66
75431;BMP280;64127;51.488;5.462;2023-05-29T06:04:05;102199.53;;;16.75
75431;BMP280;64127;51.488;5.462;2023-05-29T06:06:37;102199.75;;;16.81
75431;BMP280;64127;51.488;5.462;2023-05-29T06:09:09;102191.97;;;16.85
75431;BMP280;64127;51.488;5.462;2023-05-29T06:11:42;102197.75;;;16.97
75431;BMP280;64127;51.488;5.462;2023-05-29T06:14:15;102200.31;;;16.96
75431;BMP280;64127;51.488;5.462;2023-05-29T06:16:47;102190.59;;;16.95
75431;BMP280;64127;51.488;5.462;2023-05-29T06:19:19;102213.19;;;17.09
75431;BMP280;64127;51.488;5.462;2023-05-29T06:21:51;102213.44;;;17.15
75431;BMP280;64127;51.488;5.462;2023-05-29T06:24:23;102200.47;;;17.22
75431;BMP280;64127;51.488;5.462;2023-05-29T06:26:55;102217.50;;;17.29
75431;BMP280;64127;51.488;5.462;2023-05-29T06:29:27;102211.06;;;17.22
75431;BMP280;64127;51.488;5.462;2023-05-29T06:31:59;102219.28;;;17.30
75431;BMP280;64127;51.488;5.462;2023-05-29T06:34:32;102220.56;;;17.41
75431;BMP280;64127;51.488;5.462;2023-05-29T06:37:04;102223.13;;;17.38
75431;BMP280;64127;51.488;5.462;2023-05-29T06:39:36;102236.75;;;17.49
75431;BMP280;64127;51.488;5.462;2023-05-29T06:42:08;102232.38;;;17.49
75431;BMP280;64127;51.488;5.462;2023-05-29T06:44:40;102226.81;;;17.43
75431;BMP280;64127;51.488;5.462;2023-05-29T06:47:12;102229.13;;;17.56
75431;BMP280;64127;51.488;5.462;2023-05-29T06:49:44;102221.28;;;17.59
75431;BMP280;64127;51.488;5.462;2023-05-29T06:52:16;102224.13;;;17.65
75431;BMP280;64127;51.488;5.462;2023-05-29T06:54:48;102229.53;;;17.68
75431;BMP280;64127;51.488;5.462;2023-05-29T06:57:20;102229.84;;;17.78
75431;BMP280;64127;51.488;5.462;2023-05-29T06:59:53;102214.78;;;17.77
75431;BMP280;64127;51.488;5.462;2023-05-29T07:02:25;102230.19;;;17.87
75431;BMP280;64127;51.488;5.462;2023-05-29T07:04:58;102221.41;;;17.89
75431;BMP280;64127;51.488;5.462;2023-05-29T07:07:31;102222.31;;;17.90
75431;BMP280;64127;51.488;5.462;2023-05-29T07:10:04;102232.50;;;18.03
75431;BMP280;64127;51.488;5.462;2023-05-29T07:12:37;102226.66;;;18.13
75431;BMP280;64127;51.488;5.462;2023-05-29T07:15:09;102226.81;;;18.17
75431;BMP280;64127;51.488;5.462;2023-05-29T07:17:41;102226.81;;;18.17
75431;BMP280;64127;51.488;5.462;2023-05-29T07:20:14;102227.38;;;18.36
75431;BMP280;64127;51.488;5.462;2023-05-29T07:22:46;102232.41;;;18.53
75431;BMP280;64127;51.488;5.462;2023-05-29T07:25:19;102222.88;;;18.60
75431;BMP280;64127;51.488;5.462;2023-05-29T07:27:51;102223.88;;;18.63
75431;BMP280;64127;51.488;5.462;2023-05-29T07:30:23;102228.75;;;18.77
75431;BMP280;64127;51.488;5.462;2023-05-29T07:32:55;102229.16;;;18.90
75431;BMP280;64127;51.488;5.462;2023-05-29T07:35:27;102235.66;;;19.00
75431;BMP280;64127;51.488;5.462;2023-05-29T07:38:00;102214.00;;;18.88
75431;BMP280;64127;51.488;5.462;2023-05-29T07:40:32;102237.25;;;18.95
75431;BMP280;64127;51.488;5.462;2023-05-29T07:43:04;102236.16;;;18.87
75431;BMP280;64127;51.488;5.462;2023-05-29T07:45:36;102232.16;;;19.02
75431;BMP280;64127;51.488;5.462;2023-05-29T07:48:08;102229.06;;;19.17
75431;BMP280;64127;51.488;5.462;2023-05-29T07:50:40;102238.22;;;19.28
75431;BMP280;64127;51.488;5.462;2023-05-29T07:53:12;102234.22;;;19.41
75431;BMP280;64127;51.488;5.462;2023-05-29T07:55:44;102239.84;;;19.51
75431;BMP280;64127;51.488;5.462;2023-05-29T07:58:16;102239.94;;;19.54
75431;BMP280;64127;51.488;5.462;2023-05-29T08:00:48;102238.25;;;19.58
75431;BMP280;64127;51.488;5.462;2023-05-29T08:03:21;102244.06;;;19.76
75431;BMP280;64127;51.488;5.462;2023-05-29T08:05:53;102234.66;;;19.89
75431;BMP280;64127;51.488;5.462;2023-05-29T08:08:25;102233.16;;;20.00
75431;BMP280;64127;51.488;5.462;2023-05-29T08:10:57;102233.16;;;20.00
75431;BMP280;64127;51.488;5.462;2023-05-29T08:13:30;102241.50;;;20.13
75431;BMP280;64127;51.488;5.462;2023-05-29T08:16:03;102239.91;;;20.21
75431;BMP280;64127;51.488;5.462;2023-05-29T08:18:35;102208.63;;;20.13
75431;BMP280;64127;51.488;5.462;2023-05-29T08:21:08;102242.81;;;20.29
75431;BMP280;64127;51.488;5.462;2023-05-29T08:23:41;102233.91;;;20.27
75431;BMP280;64127;51.488;5.462;2023-05-29T08:26:13;102246.72;;;20.43
75431;BMP280;64127;51.488;5.462;2023-05-29T08:28:45;102248.59;;;20.47
75431;BMP280;64127;51.488;5.462;2023-05-29T08:31:17;102250.41;;;20.50
75431;BMP280;64127;51.488;5.462;2023-05-29T08:33:49;102246.91;;;20.52
75431;BMP280;64127;51.488;5.462;2023-05-29T08:36:21;102239.75;;;20.50
75431;BMP280;64127;51.488;5.462;2023-05-29T08:38:53;102245.38;;;20.62
75431;BMP280;64127;51.488;5.462;2023-05-29T08:41:41;102255.03;;;20.57
75431;BMP280;64127;51.488;5.462;2023-05-29T08:44:21;102244.97;;;20.45
75431;BMP280;64127;51.488;5.462;2023-05-29T08:46:55;102244.97;;;20.44
75431;BMP280;64127;51.488;5.462;2023-05-29T08:49:34;102242.44;;;20.50
75431;BMP280;64127;51.488;5.462;2023-05-29T08:52:17;102246.13;;;20.56
75431;BMP280;64127;51.488;5.462;2023-05-29T08:54:51;102256.22;;;20.69
75431;BMP280;64127;51.488;5.462;2023-05-29T08:57:25;102250.94;;;20.72
75431;BMP280;64127;51.488;5.462;2023-05-29T08:59:58;102251.25;;;20.85
75431;BMP280;64127;51.488;5.462;2023-05-29T09:02:30;102252.56;;;21.05
75431;BMP280;64127;51.488;5.462;2023-05-29T09:05:03;102252.06;;;21.21
75431;BMP280;64127;51.488;5.462;2023-05-29T09:07:39;102259.44;;;21.34
75431;BMP280;64127;51.488;5.462;2023-05-29T09:10:11;102249.50;;;21.27
75431;BMP280;64127;51.488;5.462;2023-05-29T09:12:45;102250.47;;;21.29
75431;BMP280;64127;51.488;5.462;2023-05-29T09:15:20;102257.72;;;21.36
75431;BMP280;64127;51.488;5.462;2023-05-29T09:17:55;102248.97;;;21.43
75431;BMP280;64127;51.488;5.462;2023-05-29T09:20:29;102233.94;;;21.48
75431;BMP280;64127;51.488;5.462;2023-05-29T09:23:05;102246.56;;;21.57
75431;BMP280;64127;51.488;5.462;2023-05-29T09:25:42;102251.19;;;21.65
75431;BMP280;64127;51.488;5.462;2023-05-29T09:28:18;102253.94;;;21.71
75431;BMP280;64127;51.488;5.462;2023-05-29T09:30:52;102251.38;;;21.74
75431;BMP280;64127;51.488;5.462;2023-05-29T09:33:25;102256.00;;;21.85
75431;BMP280;64127;51.488;5.462;2023-05-29T09:35:59;102242.78;;;21.91
75431;BMP280;64127;51.488;5.462;2023-05-29T09:38:32;102233.97;;;21.95
75431;BMP280;64127;51.488;5.462;2023-05-29T09:41:23;102242.88;;;21.97
75431;BMP280;64127;51.488;5.462;2023-05-29T09:43:55;102241.31;;;22.08
75431;BMP280;64127;51.488;5.462;2023-05-29T09:46:28;102238.88;;;22.23
75431;BMP280;64127;51.488;5.462;2023-05-29T09:49:02;102247.94;;;22.31
75431;BMP280;64127;51.488;5.462;2023-05-29T09:51:35;102238.16;;;22.33
75431;BMP280;64127;51.488;5.462;2023-05-29T09:54:18;102236.50;;;22.41
75431;BMP280;64127;51.488;5.462;2023-05-29T09:56:51;102245.47;;;22.45
75431;BMP280;64127;51.488;5.462;2023-05-29T09:59:25;102239.38;;;22.53
75431;BMP280;64127;51.488;5.462;2023-05-29T10:02:04;102238.50;;;22.54
75431;BMP280;64127;51.488;5.462;2023-05-29T10:04:39;102236.81;;;22.59
75431;BMP280;64127;51.488;5.462;2023-05-29T10:07:46;102236.47;;;22.38
75431;BMP280;64127;51.488;5.462;2023-05-29T10:10:20;102236.41;;;22.35
75431;BMP280;64127;51.488;5.462;2023-05-29T10:12:54;102241.69;;;22.29
75431;BMP280;64127;51.488;5.462;2023-05-29T10:15:28;102232.81;;;22.33
75431;BMP280;64127;51.488;5.462;2023-05-29T10:18:05;102241.13;;;22.50
75431;BMP280;64127;51.488;5.462;2023-05-29T10:20:44;102244.00;;;22.63
75431;BMP280;64127;51.488;5.462;2023-05-29T10:23:22;102240.41;;;22.63
75431;BMP280;64127;51.488;5.462;2023-05-29T10:26:10;102240.56;;;22.70
75431;BMP280;64127;51.488;5.462;2023-05-29T10:29:37;102222.88;;;22.82
75431;BMP280;64127;51.488;5.462;2023-05-29T10:31:54;102223.97;;;22.96
75431;BMP280;64127;51.488;5.462;2023-05-29T10:34:58;102224.91;;;22.99
75431;BMP280;64127;51.488;5.462;2023-05-29T10:37:46;102218.81;;;23.11
75431;BMP280;64127;51.488;5.462;2023-05-29T10:40:24;102219.78;;;23.19
75431;BMP280;64127;51.488;5.462;2023-05-29T10:42:57;102223.44;;;23.24
75431;BMP280;64127;51.488;5.462;2023-05-29T10:50:47;102221.06;;;23.48
75431;BMP280;64127;51.488;5.462;2023-05-29T10:53:31;102219.31;;;23.52
75431;BMP280;64127;51.488;5.462;2023-05-29T10:56:08;102227.38;;;23.56
75431;BMP280;64127;51.488;5.462;2023-05-29T10:58:42;102226.47;;;23.51
75431;BMP280;64127;51.488;5.462;2023-05-29T11:01:15;102221.09;;;23.53
75431;BMP280;64127;51.488;5.462;2023-05-29T11:03:47;102218.44;;;23.54
75431;BMP280;64127;51.488;5.462;2023-05-29T11:06:22;102222.06;;;23.58
75431;BMP280;64127;51.488;5.462;2023-05-29T11:08:56;102205.03;;;23.53
75431;BMP280;64127;51.488;5.462;2023-05-29T11:11:32;102202.31;;;23.48
75431;BMP280;64127;51.488;5.462;2023-05-29T11:14:07;102194.13;;;23.38
75431;BMP280;64127;51.488;5.462;2023-05-29T11:16:39;102206.81;;;23.51
75431;BMP280;64127;51.488;5.462;2023-05-29T11:19:13;102212.25;;;23.58
75431;BMP280;64127;51.488;5.462;2023-05-29T11:24:28;102198.91;;;23.63
75431;BMP280;64127;51.488;5.462;2023-05-29T11:27:01;102198.06;;;23.68
75431;BMP280;64127;51.488;5.462;2023-05-29T11:29:38;102203.41;;;23.65
75431;BMP280;64127;51.488;5.462;2023-05-29T11:32:14;102195.34;;;23.65
75431;BMP280;64127;51.488;5.462;2023-05-29T11:34:49;102195.28;;;23.58
75431;BMP280;64127;51.488;5.462;2023-05-29T11:37:23;102193.47;;;23.55
75431;BMP280;64127;51.488;5.462;2023-05-29T11:39:55;102195.38;;;23.68
75431;BMP280;64127;51.488;5.462;2023-05-29T11:42:27;102195.47;;;23.79
75431;BMP280;64127;51.488;5.462;2023-05-29T11:45:16;102205.31;;;23.82
75431;BMP280;64127;51.488;5.462;2023-05-29T11:48:00;102206.09;;;23.70
75431;BMP280;64127;51.488;5.462;2023-05-29T11:50:33;102206.16;;;23.74
75431;BMP280;64127;51.488;5.462;2023-05-29T11:53:07;102195.47;;;23.78
75431;BMP280;64127;51.488;5.462;2023-05-29T11:55:40;102192.00;;;23.91
75431;BMP280;64127;51.488;5.462;2023-05-29T11:58:12;102194.69;;;23.89
75431;BMP280;64127;51.488;5.462;2023-05-29T12:00:44;102183.88;;;23.82
75431;BMP280;64127;51.488;5.462;2023-05-29T12:03:22;102189.25;;;23.80
75431;BMP280;64127;51.488;5.462;2023-05-29T12:05:54;102170.47;;;23.82
75431;BMP280;64127;51.488;5.462;2023-05-29T12:08:27;102192.97;;;23.97
75431;BMP280;64127;51.488;5.462;2023-05-29T12:10:59;102189.50;;;24.07
75431;BMP280;64127;51.488;5.462;2023-05-29T12:13:33;102188.50;;;24.01
75431;BMP280;64127;51.488;5.462;2023-05-29T12:16:06;102193.84;;;23.98
75431;BMP280;64127;51.488;5.462;2023-05-29T12:18:38;102193.84;;;23.98
75431;BMP280;64127;51.488;5.462;2023-05-29T12:21:11;102188.44;;;23.92
75431;BMP280;64127;51.488;5.462;2023-05-29T12:23:43;102192.06;;;23.97
75431;BMP280;64127;51.488;5.462;2023-05-29T12:26:15;102193.91;;;24.02
75431;BMP280;64127;51.488;5.462;2023-05-29T12:28:50;102186.78;;;24.06
75431;BMP280;64127;51.488;5.462;2023-05-29T12:31:28;102175.09;;;24.01
75431;BMP280;64127;51.488;5.462;2023-05-29T12:34:07;102193.97;;;24.10
75431;BMP280;64127;51.488;5.462;2023-05-29T12:36:42;102185.88;;;24.05
75431;BMP280;64127;51.488;5.462;2023-05-29T12:39:17;102177.78;;;24.01
75431;BMP280;64127;51.488;5.462;2023-05-29T12:41:54;102189.41;;;23.97
75431;BMP280;64127;51.488;5.462;2023-05-29T12:44:26;102181.41;;;24.06
75431;BMP280;64127;51.488;5.462;2023-05-29T12:46:58;102188.69;;;24.16
75431;BMP280;64127;51.488;5.462;2023-05-29T12:49:30;102179.72;;;24.14
75431;BMP280;64127;51.488;5.462;2023-05-29T12:52:06;102162.56;;;23.94
75431;BMP280;64127;51.488;5.462;2023-05-29T12:54:43;102182.25;;;23.97
75431;BMP280;64127;51.488;5.462;2023-05-29T12:57:16;102191.16;;;23.95
75431;BMP280;64127;51.488;5.462;2023-05-29T12:59:48;102180.44;;;23.96
75431;BMP280;64127;51.488;5.462;2023-05-29T13:02:20;102175.09;;;23.99
75431;BMP280;64127;51.488;5.462;2023-05-29T13:04:52;102176.94;;;24.05
75431;BMP280;64127;51.488;5.462;2023-05-29T13:07:24;102178.69;;;24.01
75431;BMP280;64127;51.488;5.462;2023-05-29T13:10:00;102161.59;;;23.86
75431;BMP280;64127;51.488;5.462;2023-05-29T13:12:35;102174.13;;;23.90
75431;BMP280;64127;51.488;5.462;2023-05-29T13:15:09;102183.16;;;24.01
75431;BMP280;64127;51.488;5.462;2023-05-29T13:17:42;102185.78;;;23.95
75431;BMP280;64127;51.488;5.462;2023-05-29T13:20:14;102191.13;;;23.92
75431;BMP280;64127;51.488;5.462;2023-05-29T13:22:47;102186.63;;;23.91
75431;BMP280;64127;51.488;5.462;2023-05-29T13:25:20;102191.94;;;23.85
75431;BMP280;64127;51.488;5.462;2023-05-29T13:27:53;102158.75;;;23.67
75431;BMP280;64127;51.488;5.462;2023-05-29T13:30:25;102177.53;;;23.73
75431;BMP280;64127;51.488;5.462;2023-05-29T13:32:57;102184.75;;;23.81
75431;BMP280;64127;51.488;5.462;2023-05-29T13:35:30;102185.63;;;23.78
75431;BMP280;64127;51.488;5.462;2023-05-29T13:38:02;102185.56;;;23.70
75431;BMP280;64127;51.488;5.462;2023-05-29T13:40:34;102188.28;;;23.72
75431;BMP280;64127;51.488;5.462;2023-05-29T13:43:06;102186.53;;;23.79
75431;BMP280;64127;51.488;5.462;2023-05-29T13:45:38;102193.72;;;23.80
75431;BMP280;64127;51.488;5.462;2023-05-29T13:48:12;102188.41;;;23.86
75431;BMP280;64127;51.488;5.462;2023-05-29T13:50:44;102183.00;;;23.83
75431;BMP280;64127;51.488;5.462;2023-05-29T13:53:16;102182.97;;;23.77
75431;BMP280;64127;51.488;5.462;2023-05-29T13:55:48;102200.75;;;23.68
75431;BMP280;64127;51.488;5.462;2023-05-29T13:58:20;102190.06;;;23.74
75431;BMP280;64127;51.488;5.462;2023-05-29T14:00:52;102190.91;;;23.70
75431;BMP280;64127;51.488;5.462;2023-05-29T14:03:24;102175.63;;;23.60
75431;BMP280;64127;51.488;5.462;2023-05-29T14:06:01;102178.38;;;23.65
75431;BMP280;64127;51.488;5.462;2023-05-29T14:08:36;102175.78;;;23.74
75431;BMP280;64127;51.488;5.462;2023-05-29T14:11:08;102176.78;;;23.88
75431;BMP280;64127;51.488;5.462;2023-05-29T14:13:41;102183.13;;;23.96
75431;BMP280;64127;51.488;5.462;2023-05-29T14:16:13;102185.91;;;24.10
75431;BMP280;64127;51.488;5.462;2023-05-29T14:18:47;102179.69;;;24.11
75431;BMP280;64127;51.488;5.462;2023-05-29T14:21:20;102170.72;;;24.09
75431;BMP280;64127;51.488;5.462;2023-05-29T14:23:52;102177.97;;;24.19
75431;BMP280;64127;51.488;5.462;2023-05-29T14:26:24;102177.97;;;24.22
75431;BMP280;64127;51.488;5.462;2023-05-29T14:28:57;102165.50;;;24.24
75431;BMP280;64127;51.488;5.462;2023-05-29T14:31:44;102170.78;;;24.18
75431;BMP280;64127;51.488;5.462;2023-05-29T14:34:16;102165.34;;;24.09
75431;BMP280;64127;51.488;5.462;2023-05-29T14:36:48;102161.78;;;24.07
75431;BMP280;64127;51.488;5.462;2023-05-29T14:39:22;102169.78;;;24.05
75431;BMP280;64127;51.488;5.462;2023-05-29T14:41:54;102167.03;;;23.96
75431;BMP280;64127;51.488;5.462;2023-05-29T14:44:27;102172.34;;;23.89